Flight Track Log - Related Links

Times and Time Zones

All times are in EDT time to prevent confusion due to time zone crossing. See the AWE648 flight status page for this flight to view local times or setup timezone preferences in your user account.

Time Position Orientation Groundspeed Altitude Reporting Facility
EDT Latitude Longitude Course Direction KTS MPH feet Rate Location/Type
Wed 01:18:33 AM 37.6667 -122.3333 90° East 156 180 3,200  Level Northern Cal TRACON
Wed 01:19:33 AM 37.7333 -122.3500 349° North 225 259 4,100 1,327 Climbing Northern Cal TRACON
Wed 01:20:00 AM 37.9438 -122.3102 80° East  Level FlightAware Approximate
Wed 01:20:17 AM 37.7600 -122.3736 325° Northwest 236 272 5,500  Level Oakland Center
Wed 01:20:39 AM 37.8000 -122.3833 349° North 286 329 6,600 1,967 Climbing Northern Cal TRACON
Wed 01:21:00 AM 37.9599 -122.1481 84° East  Level FlightAware Approximate
Wed 01:21:18 AM 37.8172 -122.3339 66° East 273 314 7,500  Level Oakland Center
Wed 01:22:00 AM 37.9702 -121.9859 72° East  Level FlightAware Approximate
Wed 01:22:19 AM 37.8367 -122.2339 76° East 294 338 10,200  Level Oakland Center
Wed 01:23:00 AM 37.9833 -121.8240 90° East  Level FlightAware Approximate
Wed 01:23:20 AM 37.8622 -122.1039 76° East 318 366 11,400  Level Oakland Center
Wed 01:24:21 AM 37.8867 -121.9783 76° East 366 421 12,700 1,721 Climbing Oakland Center
Wed 01:25:22 AM 37.9131 -121.8472 76° East 382 440 14,900 1,770 Climbing Oakland Center
Wed 01:26:23 AM 37.9386 -121.7128 76° East 392 451 16,300 1,426 Climbing Oakland Center
Wed 01:27:24 AM 37.9697 -121.5753 74° East 405 466 17,800 1,475 Climbing Oakland Center
Wed 01:28:25 AM 38.0069 -121.4281 72° East 417 480 19,300 1,339 Climbing Oakland Center
Wed 01:29:25 AM 38.0439 -121.2839 72° East 431 496 20,500 1,190 Climbing Oakland Center
Wed 01:30:26 AM 38.0811 -121.1350 72° East 443 510 21,700 1,180 Climbing Oakland Center
Wed 01:31:27 AM 38.1178 -120.9844 73° East 450 518 22,900 1,180 Climbing Oakland Center
Wed 01:32:28 AM 38.1556 -120.8322 72° East 455 524 24,100 1,180 Climbing Oakland Center
Wed 01:33:29 AM 38.1931 -120.6786 73° East 457 526 25,300 1,091 Climbing Oakland Center
Wed 01:34:29 AM 38.2319 -120.5231 72° East 464 534 26,300 1,091 Climbing Oakland Center
Wed 01:35:30 AM 38.2689 -120.3675 73° East 464 534 27,500 1,082 Climbing Oakland Center
Wed 01:36:31 AM 38.3058 -120.2103 73° East 465 535 28,500 1,033 Climbing Oakland Center
Wed 01:37:32 AM 38.3519 -120.0225 73° East 465 535 29,600 992 Climbing Oakland Center
Wed 01:38:32 AM 38.3886 -119.8644 73° East 467 537 30,500 893 Climbing Oakland Center
Wed 01:39:33 AM 38.4242 -119.7111 73° East 466 536 31,400 885 Climbing Oakland Center
Wed 01:40:34 AM 38.4614 -119.5519 73° East 468 539 32,300 793 Climbing Oakland Center
Wed 01:41:34 AM 38.4981 -119.3947 73° East 465 535 33,000 347 Climbing Oakland Center
Wed 01:42:35 AM 38.5336 -119.2350 74° East 467 537 33,000  Level Oakland Center
Wed 01:43:36 AM 38.5708 -119.0739 73° East 473 544 33,000  Level Oakland Center
Wed 01:44:36 AM 38.6072 -118.9117 74° East 477 549 33,000  Level Oakland Center
Wed 01:45:37 AM 38.6442 -118.7494 74° East 477 549 33,000  Level Oakland Center
Wed 01:46:38 AM 38.6803 -118.5875 74° East 477 549 33,000  Level Oakland Center
Wed 01:47:39 AM 38.7161 -118.4253 74° East 478 550 33,000  Level Oakland Center
Wed 01:48:39 AM 38.7519 -118.2617 74° East 480 552 33,000  Level Oakland Center
Wed 01:49:40 AM 38.7947 -118.0647 74° East 481 554 33,000  Level Oakland Center
Wed 01:50:41 AM 38.8303 -117.9006 74° East 481 554 33,000  Level Oakland Center
Wed 01:51:41 AM 38.8650 -117.7347 75° East 483 556 33,000  Level Oakland Center
Wed 01:52:42 AM 38.8978 -117.5819 75° East 482 555 33,000  Level Oakland Center
Wed 01:53:42 AM 38.9353 -117.4028 75° East 485 558 33,000  Level Oakland Center
Wed 01:54:43 AM 38.9706 -117.2358 75° East 485 558 33,000  Level Oakland Center
Wed 01:55:43 AM 39.0058 -117.0667 75° East 490 564 33,000  Level Oakland Center
Wed 01:56:44 AM 39.0389 -116.9061 75° East 489 563 33,000  Level Oakland Center
Wed 01:57:44 AM 39.0742 -116.7361 75° East 489 563 33,000  Level Oakland Center
Wed 01:58:45 AM 39.1092 -116.5647 75° East 492 566 33,000  Level Oakland Center
Wed 01:59:45 AM 39.1469 -116.3739 76° East 500 575 33,000  Level Oakland Center
Wed 02:00:46 AM 39.1803 -116.2069 76° East 502 578 33,000  Level Oakland Center
Wed 02:01:58 AM 39.2192 -116.0075 76° East 507 583 33,000  Level Salt Lake Center
Wed 02:02:58 AM 39.2586 -115.8081 76° East 513 590 33,000  Level Salt Lake Center
Wed 02:03:58 AM 39.2922 -115.6375 76° East 513 590 33,000  Level Salt Lake Center
Wed 02:04:59 AM 39.3244 -115.4681 76° East 512 589 33,000  Level Salt Lake Center
Wed 02:05:59 AM 39.3633 -115.2675 76° East 514 592 33,000  Level Salt Lake Center
Wed 02:07:00 AM 39.3956 -115.0972 76° East 510 587 33,000  Level Salt Lake Center
Wed 02:08:00 AM 39.4264 -114.9258 77° East 511 588 33,000  Level Salt Lake Center
Wed 02:09:00 AM 39.4608 -114.7508 76° East 522 601 33,000  Level Salt Lake Center
Wed 02:10:01 AM 39.4981 -114.5503 76° East 516 594 33,000  Level Salt Lake Center
Wed 02:11:01 AM 39.5292 -114.3744 77° East 514 592 33,000  Level Salt Lake Center
Wed 02:12:01 AM 39.5625 -114.1919 77° East 520 598 33,000  Level Salt Lake Center
Wed 02:13:02 AM 39.5961 -114.0081 77° East 523 602 33,000  Level Salt Lake Center
Wed 02:14:02 AM 39.6283 -113.8233 77° East 524 603 33,000 50 Level Salt Lake Center
Wed 02:15:03 AM 39.6608 -113.6375 77° East 528 608 33,100  Climbing Salt Lake Center
Wed 02:16:03 AM 39.6925 -113.4497 78° East 531 611 33,000 -50 Descending Salt Lake Center
Wed 02:17:03 AM 39.7250 -113.2636 77° East 529 609 33,000 -50 Level Salt Lake Center
Wed 02:18:04 AM 39.7550 -113.0847 78° East 528 608 32,900  Descending Salt Lake Center
Wed 02:19:04 AM 39.7867 -112.8981 77° East 529 609 33,000 50 Climbing Salt Lake Center
Wed 02:20:04 AM 39.8181 -112.7081 78° East 536 617 33,000  Level Salt Lake Center
Wed 02:21:05 AM 39.8503 -112.5200 77° East 537 618 33,000  Level Salt Lake Center
Wed 02:22:05 AM 39.8808 -112.3289 78° East 542 624 33,000  Level Salt Lake Center
Wed 02:23:05 AM 39.9122 -112.1381 78° East 544 626 33,000  Level Salt Lake Center
Wed 02:24:06 AM 39.9483 -111.9086 78° East 543 625 33,000  Level Salt Lake Center
Wed 02:25:06 AM 39.9778 -111.7175 79° East 543 625 33,000  Level Salt Lake Center
Wed 02:26:06 AM 40.0067 -111.5336 78° East 543 625 33,000 -50 Level Salt Lake Center
Wed 02:27:07 AM 40.0350 -111.3500 79° East 541 623 32,900  Descending Salt Lake Center
Wed 02:28:07 AM 40.0661 -111.1442 79° East 542 624 33,000 100 Climbing Salt Lake Center
Wed 02:29:07 AM 40.0950 -110.9547 79° East 538 619 33,100  Climbing Salt Lake Center
Wed 02:30:08 AM 40.1214 -110.7697 79° East 535 616 33,000 -50 Descending Salt Lake Center
Wed 02:31:08 AM 40.1478 -110.5897 79° East 528 608 33,000  Level Salt Lake Center
Wed 02:32:08 AM 40.1778 -110.3814 79° East 523 602 33,000 -50 Level Salt Lake Center
Wed 02:33:09 AM 40.2039 -110.2008 79° East 526 605 32,900  Descending Salt Lake Center
Wed 02:34:09 AM 40.2294 -110.0186 80° East 530 610 33,000  Climbing Salt Lake Center
Wed 02:35:09 AM 40.2550 -109.8336 80° East 536 617 32,900  Descending Salt Lake Center
Wed 02:36:10 AM 40.2786 -109.6186 82° East 536 617 33,000 50 Climbing Salt Lake Center
Wed 02:37:10 AM 40.2931 -109.4328 84° East 535 616 33,000  Level Salt Lake Center
Wed 02:38:10 AM 40.3078 -109.2458 84° East 535 616 33,000 51 Level Salt Lake Center
Wed 02:39:07 AM 40.3219 -109.0542 84° East 538 619 33,100 51 Climbing Denver Center
Wed 02:40:07 AM 40.3364 -108.8672 84° East 536 617 33,100 -50 Level Denver Center
Wed 02:41:08 AM 40.3522 -108.6500 84° East 534 615 33,000 -50 Descending Denver Center
Wed 02:42:08 AM 40.3658 -108.4681 84° East 526 605 33,000  Level Denver Center
Wed 02:43:12 AM 40.3794 -108.2675 85° East 521 600 33,000  Level Salt Lake Center
Wed 02:44:12 AM 40.3919 -108.0872 85° East 521 600 33,000  Level Salt Lake Center
Wed 02:45:13 AM 40.4036 -107.9069 85° East 520 598 33,000  Level Salt Lake Center
Wed 02:46:09 AM 40.4167 -107.7136 85° East 518 596 33,000  Level Denver Center
Wed 02:47:10 AM 40.4278 -107.5333 85° East 517 595 33,000  Level Denver Center
Wed 02:48:10 AM 40.4389 -107.3539 85° East 516 594 33,000  Level Denver Center
Wed 02:49:10 AM 40.4511 -107.1481 85° East 508 585 33,000  Level Denver Center
Wed 02:50:11 AM 40.4614 -106.9725 86° East 505 581 33,000 50 Level Denver Center
Wed 02:51:11 AM 40.4853 -106.8147 79° East 504 580 33,100 -50 Climbing Denver Center
Wed 02:52:11 AM 40.5172 -106.6325 77° East 508 585 32,900 -50 Descending Denver Center
Wed 02:53:12 AM 40.5519 -106.4228 78° East 507 583 33,000 50 Climbing Denver Center
Wed 02:54:12 AM 40.5814 -106.2503 77° East 506 582 33,000  Level Denver Center
Wed 02:55:12 AM 40.6150 -106.0503 77° East 506 582 33,000  Level Denver Center
Wed 02:56:13 AM 40.6244 -105.8617 86° East 511 588 33,000  Level Denver Center
Wed 02:57:13 AM 40.6300 -105.7028 87° East 514 592 33,000 50 Level Denver Center
Wed 02:58:13 AM 40.6353 -105.5108 88° East 520 598 33,100  Climbing Denver Center
Wed 02:59:14 AM 40.6194 -105.3244 96° East 511 588 33,000 -50 Descending Denver Center
Wed 03:00:14 AM 40.6039 -105.1367 96° East 509 586 33,000 -50 Level Denver Center
Wed 03:01:14 AM 40.5872 -104.9500 97° East 509 586 32,900 -50 Descending Denver Center
Wed 03:02:15 AM 40.5708 -104.7611 96° East 510 587 32,900 50 Level Denver Center
Wed 03:03:15 AM 40.5556 -104.5664 96° East 524 603 33,000 50 Climbing Denver Center
Wed 03:04:16 AM 40.5353 -104.3714 98° East 530 610 33,000  Level Denver Center
Wed 03:05:16 AM 40.5069 -104.1819 101° East 523 602 33,000  Level Denver Center
Wed 03:06:16 AM 40.4822 -103.9981 100° East 508 585 33,000  Level Denver Center
Wed 03:07:17 AM 40.4481 -103.8125 104° East 520 598 33,000  Level Denver Center
Wed 03:08:17 AM 40.4156 -103.6369 104° East 490 564 33,000  Level Denver Center
Wed 03:09:17 AM 40.3731 -103.4617 108° East 494 568 33,000  Level Denver Center
Wed 03:10:18 AM 40.3306 -103.2881 108° East 495 570 33,000  Level Denver Center
Wed 03:11:18 AM 40.2911 -103.1136 106° East 497 572 33,000  Level Denver Center
Wed 03:12:19 AM 40.2556 -102.9394 105° East 492 566 33,000  Level Denver Center
Wed 03:13:19 AM 40.2547 -102.7528 90° East 507 583 33,000  Level Denver Center
Wed 03:14:19 AM 40.2625 -102.5842 86° East 508 585 33,000  Level Denver Center
Wed 03:15:20 AM 40.2472 -102.3817 96° East 501 577 33,000  Level Denver Center
Wed 03:16:20 AM 40.2319 -102.2092 97° East 498 573 33,000  Level Denver Center
Wed 03:17:21 AM 40.2164 -102.0361 97° East 501 577 33,000  Level Denver Center
Wed 03:18:21 AM 40.2022 -101.8639 96° East 499 574 33,000  Level Denver Center
Wed 03:19:21 AM 40.1806 -101.6642 98° East 498 573 33,000  Level Denver Center
Wed 03:20:22 AM 40.1439 -101.4992 106° East 494 568 33,000 50 Level Denver Center
Wed 03:21:22 AM 40.1119 -101.3319 104° East 498 573 33,100 600 Climbing Denver Center
Wed 03:22:22 AM 40.0861 -101.1942 104° East 494 568 34,200 942 Climbing Denver Center
Wed 03:23:23 AM 40.0486 -100.9764 103° East 487 560 35,000 397 Climbing Denver Center
Wed 03:24:23 AM 40.0217 -100.8111 102° East 489 563 35,000  Level Denver Center
Wed 03:25:23 AM 39.9908 -100.6186 102° East 487 560 35,000  Level Denver Center
Wed 03:26:24 AM 39.9700 -100.4544 99° East 483 556 35,000  Level Denver Center
Wed 03:27:24 AM 39.9486 -100.2883 99° East 486 559 35,000  Level Denver Center
Wed 03:28:25 AM 39.9317 -100.1219 98° East 487 560 35,000  Level Denver Center
Wed 03:29:25 AM 39.9150 -99.9453 97° East 491 565 35,000  Level Denver Center
Wed 03:30:25 AM 39.9064 -99.8053 95° East 488 562 35,000  Level Denver Center
Wed 03:31:26 AM 39.9147 -99.5531 87° East 500 575 35,000  Level Denver Center
Wed 03:32:26 AM 39.9228 -99.3742 87° East 496 571 35,000  Level Denver Center
Wed 03:33:26 AM 39.9308 -99.1964 87° East 495 570 35,000  Level Denver Center
Wed 03:34:27 AM 39.9397 -99.0186 86° East 494 568 35,000  Level Denver Center
Wed 03:35:27 AM 39.9467 -98.8392 87° East 495 570 35,000  Level Denver Center
Wed 03:36:20 AM 39.9536 -98.6986 86° East 495 570 35,000  Level Minneapolis Center
Wed 03:37:20 AM 39.9600 -98.5225 87° East 491 565 35,000 -50 Level Minneapolis Center
Wed 03:38:20 AM 39.9675 -98.3472 87° East 487 560 34,900  Descending Minneapolis Center
Wed 03:39:21 AM 39.9742 -98.1694 87° East 490 564 35,000 99 Climbing Minneapolis Center
Wed 03:40:21 AM 39.9806 -97.9906 87° East 494 568 35,100 50 Climbing Minneapolis Center
Wed 03:41:21 AM 39.9864 -97.8125 87° East 494 568 35,100 -50 Level Minneapolis Center
Wed 03:42:21 AM 39.9928 -97.6356 87° East 491 565 35,000 -50 Descending Minneapolis Center
Wed 03:43:22 AM 39.9978 -97.4619 88° East 484 557 35,000  Level Minneapolis Center
Wed 03:44:22 AM 40.0039 -97.2694 88° East 482 555 35,000  Level Minneapolis Center
Wed 03:45:22 AM 40.0092 -97.0964 88° East 480 552 35,000  Level Minneapolis Center
Wed 03:46:22 AM 40.0131 -96.9242 88° East 479 551 35,000  Level Minneapolis Center
Wed 03:47:23 AM 40.0181 -96.7517 88° East 478 550 35,000  Level Minneapolis Center
Wed 03:48:23 AM 40.0231 -96.5800 88° East 477 549 35,000  Level Minneapolis Center
Wed 03:49:23 AM 40.0267 -96.4089 88° East 474 545 35,000  Level Minneapolis Center
Wed 03:50:23 AM 40.0300 -96.2378 88° East 474 545 35,000  Level Minneapolis Center
Wed 03:51:24 AM 40.0328 -96.0650 89° East 476 548 35,000  Level Minneapolis Center
Wed 03:52:24 AM 40.0372 -95.8950 88° East 473 544 35,000  Level Minneapolis Center
Wed 03:53:24 AM 40.0397 -95.7239 89° East 474 545 35,000  Level Minneapolis Center
Wed 03:54:24 AM 40.0428 -95.5536 89° East 473 544 35,000  Level Minneapolis Center
Wed 03:55:25 AM 40.0444 -95.3839 89° East 472 543 35,000  Level Minneapolis Center
Wed 03:56:16 AM 40.0469 -95.2303 89° East 473 544 35,000  Level Kansas City Center
Wed 03:57:16 AM 40.0483 -95.0681 89° East 468 539 35,000  Level Kansas City Center
Wed 03:58:17 AM 40.0500 -94.9042 89° East 470 541 35,000  Level Kansas City Center
Wed 03:59:17 AM 40.0525 -94.7164 89° East 465 535 35,000  Level Kansas City Center
Wed 04:00:18 AM 40.0528 -94.5533 90° East 467 537 35,000  Level Kansas City Center
Wed 04:01:18 AM 40.0542 -94.3928 89° East 464 534 35,000  Level Kansas City Center
Wed 04:02:19 AM 40.0547 -94.2050 90° East 462 532 35,000  Level Kansas City Center
Wed 04:03:20 AM 40.0536 -94.0419 90° East 464 534 35,000  Level Kansas City Center
Wed 04:04:20 AM 40.0528 -93.8758 90° East 465 535 35,000  Level Kansas City Center
Wed 04:05:21 AM 40.0525 -93.7111 90° East 460 529 35,000  Level Kansas City Center
Wed 04:06:21 AM 40.0533 -93.5478 90° East 457 526 35,000  Level Kansas City Center
Wed 04:07:22 AM 40.0525 -93.3850 90° East 455 524 35,000  Level Kansas City Center
Wed 04:08:23 AM 40.0519 -93.2203 90° East 458 527 35,000  Level Kansas City Center
Wed 04:09:23 AM 40.0517 -93.0569 90° East 458 527 35,000  Level Kansas City Center
Wed 04:10:24 AM 40.0511 -92.8939 90° East 456 525 35,000  Level Kansas City Center
Wed 04:11:25 AM 40.0486 -92.6992 91° East 457 526 35,000  Level Kansas City Center
Wed 04:12:25 AM 40.0481 -92.5381 90° East 458 527 35,000  Level Kansas City Center
Wed 04:13:26 AM 40.0464 -92.3781 91° East 453 521 35,000  Level Kansas City Center
Wed 04:14:26 AM 40.0436 -92.2178 91° East 451 519 35,000  Level Kansas City Center
Wed 04:15:27 AM 40.0417 -92.0567 91° East 449 517 35,000  Level Kansas City Center
Wed 04:16:28 AM 40.0386 -91.8961 91° East 450 518 35,000  Level Kansas City Center
Wed 04:17:28 AM 40.0364 -91.7328 91° East 452 520 35,000  Level Kansas City Center
Wed 04:18:29 AM 40.0331 -91.5717 91° East 450 518 35,000  Level Kansas City Center
Wed 04:19:30 AM 40.0306 -91.4094 91° East 451 519 35,000  Level Kansas City Center
Wed 04:20:30 AM 40.0250 -91.2158 92° East 451 519 35,000  Level Kansas City Center
Wed 04:21:31 AM 40.0203 -91.0539 92° East 450 518 35,000  Level Kansas City Center
Wed 04:22:32 AM 40.0189 -90.9058 91° East 448 516 35,000  Level Kansas City Center
Wed 04:23:32 AM 40.0136 -90.7433 92° East 448 516 35,000  Level Kansas City Center
Wed 04:24:33 AM 40.0092 -90.5817 92° East 449 517 35,000  Level Kansas City Center
Wed 04:25:34 AM 40.0050 -90.4194 92° East 449 517 35,000  Level Kansas City Center
Wed 04:26:34 AM 39.9994 -90.2581 93° East 450 518 35,000  Level Kansas City Center
Wed 04:27:35 AM 39.9947 -90.0969 92° East 448 516 35,000  Level Kansas City Center
Wed 04:28:36 AM 39.9878 -89.9019 93° East 450 518 35,000  Level Kansas City Center
Wed 04:29:36 AM 39.9825 -89.7411 92° East 449 517 35,000  Level Kansas City Center
Wed 04:30:37 AM 39.9772 -89.5803 92° East 447 514 35,000  Level Kansas City Center
Wed 04:31:38 AM 39.9706 -89.4197 93° East 447 514 35,000  Level Kansas City Center
Wed 04:32:38 AM 39.9644 -89.2583 93° East 447 514 35,000  Level Kansas City Center
Wed 04:33:39 AM 39.9583 -89.0956 93° East 449 517 35,000  Level Kansas City Center
Wed 04:34:40 AM 39.9514 -88.9344 93° East 449 517 35,000  Level Kansas City Center
Wed 04:35:41 AM 39.9447 -88.7700 93° East 453 521 35,000  Level Kansas City Center
Wed 04:36:41 AM 39.9375 -88.6075 93° East 452 520 35,000  Level Kansas City Center
Wed 04:37:42 AM 39.9325 -88.4444 92° East 451 519 35,000  Level Kansas City Center
Wed 04:38:43 AM 39.9250 -88.2839 93° East 450 518 35,000  Level Kansas City Center
Wed 04:39:43 AM 39.9178 -88.1228 93° East 447 514 35,000  Level Kansas City Center
Wed 04:40:44 AM 39.9089 -87.9622 94° East 446 513 35,000  Level Kansas City Center
Wed 04:41:28 AM 39.9003 -87.8197 94° East 447 514 35,000  Level Indianapolis Center
Wed 04:42:29 AM 39.8903 -87.6575 95° East 447 514 35,000  Level Indianapolis Center
Wed 04:43:30 AM 39.8822 -87.4969 94° East 445 512 35,000  Level Indianapolis Center
Wed 04:44:30 AM 39.8736 -87.3339 94° East 448 516 35,000  Level Indianapolis Center
Wed 04:45:31 AM 39.8644 -87.1725 94° East 445 512 35,000  Level Indianapolis Center
Wed 04:46:31 AM 39.8547 -87.0094 94° East 448 516 35,000  Level Indianapolis Center
Wed 04:47:32 AM 39.8456 -86.8481 94° East 446 513 35,000  Level Indianapolis Center
Wed 04:48:33 AM 39.8350 -86.6856 95° East 447 514 35,000  Level Indianapolis Center
Wed 04:49:33 AM 39.8256 -86.5239 94° East 446 513 35,000  Level Indianapolis Center
Wed 04:50:34 AM 39.8231 -86.3900 91° East 442 509 35,000  Level Indianapolis Center
Wed 04:51:35 AM 39.8425 -86.2361 81° East 438 504 35,000  Level Indianapolis Center
Wed 04:52:36 AM 39.8783 -86.0728 74° East 438 504 35,000  Level Indianapolis Center
Wed 04:53:36 AM 39.9103 -85.9206 75° East 433 498 35,000  Level Indianapolis Center
Wed 04:54:37 AM 39.9422 -85.7669 75° East 435 501 35,000  Level Indianapolis Center
Wed 04:55:38 AM 39.9747 -85.6150 74° East 434 499 35,000  Level Indianapolis Center
Wed 04:56:39 AM 40.0058 -85.4603 75° East 437 503 35,000  Level Indianapolis Center
Wed 04:57:39 AM 40.0378 -85.3061 75° East 437 503 35,000  Level Indianapolis Center
Wed 04:58:40 AM 40.0697 -85.1525 75° East 436 502 35,000  Level Indianapolis Center
Wed 04:59:41 AM 40.0997 -84.9969 76° East 439 505 35,000 -49 Level Indianapolis Center
Wed 05:00:42 AM 40.1358 -84.8242 75° East 436 502 34,900  Descending Indianapolis Center
Wed 05:01:42 AM 40.1669 -84.6686 75° East 437 503 35,000 50 Climbing Indianapolis Center
Wed 05:02:43 AM 40.1975 -84.5106 76° East 444 511 35,000  Level Indianapolis Center
Wed 05:03:44 AM 40.2289 -84.3536 75° East 442 509 35,000  Level Indianapolis Center
Wed 05:04:45 AM 40.2597 -84.1953 76° East 444 511 35,000  Level Indianapolis Center
Wed 05:05:45 AM 40.2881 -84.0361 77° East 444 511 35,000  Level Indianapolis Center
Wed 05:06:46 AM 40.2931 -83.8744 88° East 440 506 35,000 -49 Level Indianapolis Center
Wed 05:07:47 AM 40.2972 -83.7136 88° East 437 503 34,900 -49 Descending Indianapolis Center
Wed 05:08:48 AM 40.3011 -83.5542 88° East 433 498 34,900  Level Indianapolis Center
Wed 05:09:48 AM 40.3050 -83.3944 88° East 433 498 34,900  Level Indianapolis Center
Wed 05:10:49 AM 40.3083 -83.2339 88° East 435 501 34,900 49 Level Indianapolis Center
Wed 05:11:50 AM 40.3114 -83.0711 89° East 440 506 35,000 49 Climbing Indianapolis Center
Wed 05:12:51 AM 40.3147 -82.9097 88° East 439 505 35,000  Level Indianapolis Center
Wed 05:13:51 AM 40.3164 -82.7622 89° East 442 509 35,000  Level Indianapolis Center
Wed 05:14:52 AM 40.3200 -82.6022 88° East 439 505 35,000  Level Indianapolis Center
Wed 05:15:53 AM 40.3214 -82.4417 89° East 438 504 35,000  Level Indianapolis Center
Wed 05:16:53 AM 40.3233 -82.2825 89° East 435 501 35,000  Level Indianapolis Center
Wed 05:17:54 AM 40.3261 -82.1283 89° East 424 488 35,000  Level Indianapolis Center
Wed 05:18:55 AM 40.3303 -81.9725 88° East 426 490 35,000  Level Indianapolis Center
Wed 05:19:56 AM 40.3747 -81.8253 68° East 432 497 35,000  Level Indianapolis Center
Wed 05:20:21 AM 40.3967 -81.7500 69° East 418 481 35,000  Level Cleveland Center
Wed 05:21:21 AM 40.4400 -81.6033 69° East 423 487 35,000  Level Cleveland Center
Wed 05:22:21 AM 40.4767 -81.4592 71° East 423 487 35,000  Level Cleveland Center
Wed 05:23:21 AM 40.4464 -81.3089 105° East 409 471 35,000  Level Cleveland Center
Wed 05:24:21 AM 40.3783 -81.1744 124° Southeast 403 464 35,000  Level Cleveland Center
Wed 05:25:21 AM 40.3122 -81.0458 124° Southeast 416 479 35,000  Level Cleveland Center
Wed 05:26:21 AM 40.2669 -80.8986 112° Southeast 423 487 35,000  Level Cleveland Center
Wed 05:27:21 AM 40.2733 -80.7436 87° East 414 476 35,000  Level Cleveland Center
Wed 05:28:21 AM 40.2778 -80.5886 88° East 409 471 35,000  Level Cleveland Center
Wed 05:29:21 AM 40.2817 -80.4361 88° East 409 471 35,000  Level Cleveland Center
Wed 05:30:21 AM 40.2856 -80.2836 88° East 414 476 35,000  Level Cleveland Center
Wed 05:31:21 AM 40.2914 -80.1286 87° East 428 493 35,000  Level Cleveland Center
Wed 05:32:21 AM 40.2928 -79.9842 89° East 421 484 35,000  Level Cleveland Center
Wed 05:33:21 AM 40.2919 -79.8292 90° East 421 484 35,000  Level Cleveland Center
Wed 05:34:21 AM 40.2867 -79.6742 93° East 421 484 35,000  Level Cleveland Center
Wed 05:35:21 AM 40.2811 -79.5161 93° East 421 484 35,000  Level Cleveland Center
Wed 05:36:21 AM 40.2775 -79.3639 92° East 421 484 35,000  Level Cleveland Center
Wed 05:37:21 AM 40.2692 -79.1928 94° East 421 484 35,000  Level Cleveland Center
Wed 05:38:21 AM 40.2608 -79.0350 94° East 426 490 35,000  Level Cleveland Center
Wed 05:39:21 AM 40.2544 -78.8800 93° East 426 490 35,000  Level Cleveland Center
Wed 05:41:16 AM 40.2417 -78.5978 93° East 426 490 35,000  Level New York Center
Wed 05:42:17 AM 40.2350 -78.4447 93° East 426 490 35,000  Level New York Center
Wed 05:43:18 AM 40.2289 -78.2836 93° East 426 490 35,000 -353 Level New York Center
Wed 05:44:16 AM 40.2200 -78.1247 94° East 426 490 34,300 -821 Descending New York Center
Wed 05:45:15 AM 40.2128 -77.9717 93° East 431 496 33,400 -950 Descending New York Center
Wed 05:46:16 AM 40.2075 -77.8161 92° East 431 496 32,400 -976 Descending New York Center
Wed 05:47:18 AM 40.1983 -77.6550 94° East 431 496 31,400 -942 Descending New York Center
Wed 05:48:17 AM 40.1886 -77.4964 95° East 431 496 30,500 -974 Descending New York Center
Wed 05:49:15 AM 40.1811 -77.3353 93° East 437 503 29,500 -1,059 Descending New York Center
Wed 05:50:16 AM 40.1708 -77.1794 95° East 445 512 28,400 -1,659 Descending New York Center
Wed 05:51:18 AM 40.1608 -77.0181 95° East 445 512 26,100 -2,150 Descending New York Center
Wed 05:52:16 AM 40.1519 -76.8653 94° East 435 501 24,100 -2,017 Descending New York Center
Wed 05:53:17 AM 40.1447 -76.7206 94° East 419 482 22,100 -1,700 Descending New York Center
Wed 05:54:16 AM 40.1369 -76.5869 94° East 392 451 20,700 -1,537 Descending New York Center
Wed 05:55:18 AM 40.1289 -76.4531 94° East 350 403 19,000 -1,438 Descending New York Center
Wed 05:56:17 AM 40.1461 -76.3514 77° East 317 365 17,800 -1,412 Descending New York Center
Wed 05:57:17 AM 40.1719 -76.2447 72° East 311 358 16,200 -1,587 Descending New York Center
Wed 05:58:18 AM 40.1936 -76.1403 75° East 311 358 14,600 -1,462 Descending New York Center
Wed 05:59:16 AM 40.1633 -76.0239 109° East 293 337 13,300 -1,361 Descending New York Center
Wed 06:00:17 AM 40.1344 -75.9239 111° Southeast 304 350 11,900 -1,500 Descending New York Center
Wed 06:01:16 AM 40.1050 -75.8294 112° Southeast 284 327 10,300 -1,462 Descending New York Center
Wed 06:02:16 AM 40.0817 -75.7436 110° East 275 316 9,000 -1,550 Descending New York Center
Wed 06:03:16 AM 40.0758 -75.6322 94° East 266 306 7,200 -1,500 Descending New York Center
Wed 06:04:16 AM 40.0711 -75.5475 94° East 266 306 6,000 -605 Descending New York Center
Wed 06:05:15 AM 40.0628 -75.4414 96° East 266 306 6,000  Level New York Center
Wed 06:06:16 AM 40.0072 -75.4214 165° South 189 217 6,000  Level New York Center
Wed 06:07:17 AM 39.9492 -75.4689 212° Southwest 189 217 6,000 -400 Level New York Center
Wed 06:08:16 AM 39.9100 -75.5094 218° Southwest 189 217 5,200 -900 Descending New York Center
Wed 06:09:17 AM 39.8906 -75.5758 249° West 189 217 4,200 -590 Descending New York Center
Wed 06:10:18 AM 39.8597 -75.6144 224° Southwest 176 203 4,000 -117 Descending New York Center
Wed 06:11:00 AM 39.8167 -75.6000 166° South 162 186 4,000  Level Philadelphia TRACON
Wed 06:11:55 AM 39.8000 -75.5667 123° Southeast 159 183 4,000 -55 Level Philadelphia TRACON
Wed 06:12:49 AM 39.8167 -75.5167 67° East 159 183 3,900 -500 Descending Philadelphia TRACON
Wed 06:13:55 AM 39.8167 -75.4667 90° East 152 175 3,000 -857 Descending Philadelphia TRACON
Wed 06:14:55 AM 39.8333 -75.4000 72° East 151 174 2,100 -900 Descending Philadelphia TRACON

Login

Don't have an account? Register now (free) for customized features, flight alerts, and more!